Terminal Aerodrome Forecast
Issued by NWS Brownsville, TX

Home | Current Version | Previous Version | Text Only | Print | Product List | Glossary On
Versions: 1 2 3 4 5 6 7 8 9 10 11
000
FTUS44 KBRO 280500
TAFBRO
TAF
KBRO 280533Z 2806/2906 34012G20KT P6SM OVC015
     FM281100 32010G17KT 6SM -RA BR BKN007 OVC011
      TEMPO 2811/2815 4SM RA BR
     FM281900 34010G15KT P6SM OVC015
     FM282300 30010KT P6SM BKN025=

USA.gov is the U.S. government's official web portal to all federal, state and local government web resources and services.